sensor_id;sensor_type;location;lat;lon;timestamp;temperature;humidity
7512;DHT22;9999;48.780;9.146;2024-03-07T00:01:18;6.20;99.90
7512;DHT22;9999;48.780;9.146;2024-03-07T00:03:46;6.20;99.90
7512;DHT22;9999;48.780;9.146;2024-03-07T00:06:13;6.10;99.90
7512;DHT22;9999;48.780;9.146;2024-03-07T00:08:39;6.10;99.90
7512;DHT22;9999;48.780;9.146;2024-03-07T00:11:06;6.10;99.90
7512;DHT22;9999;48.780;9.146;2024-03-07T00:13:34;6.10;99.90
7512;DHT22;9999;48.780;9.146;2024-03-07T00:16:02;6.00;99.90
7512;DHT22;9999;48.780;9.146;2024-03-07T00:18:30;6.00;99.90
7512;DHT22;9999;48.780;9.146;2024-03-07T00:20:57;6.00;99.90
7512;DHT22;9999;48.780;9.146;2024-03-07T00:23:24;5.90;99.90
7512;DHT22;9999;48.780;9.146;2024-03-07T00:25:52;5.90;99.90
7512;DHT22;9999;48.780;9.146;2024-03-07T00:28:18;5.90;99.90
7512;DHT22;9999;48.780;9.146;2024-03-07T00:30:45;5.80;99.90
7512;DHT22;9999;48.780;9.146;2024-03-07T00:33:12;5.80;99.90
7512;DHT22;9999;48.780;9.146;2024-03-07T00:35:41;5.80;99.90
7512;DHT22;9999;48.780;9.146;2024-03-07T00:38:10;5.80;99.90
7512;DHT22;9999;48.780;9.146;2024-03-07T00:40:36;5.80;99.90
7512;DHT22;9999;48.780;9.146;2024-03-07T00:43:04;5.90;99.90
7512;DHT22;9999;48.780;9.146;2024-03-07T00:45:32;5.80;99.90
7512;DHT22;9999;48.780;9.146;2024-03-07T00:47:58;5.80;99.90
7512;DHT22;9999;48.780;9.146;2024-03-07T00:50:26;5.80;99.90
7512;DHT22;9999;48.780;9.146;2024-03-07T00:52:55;5.80;99.90
7512;DHT22;9999;48.780;9.146;2024-03-07T00:55:22;5.80;99.90
7512;DHT22;9999;48.780;9.146;2024-03-07T00:57:49;5.70;99.90
7512;DHT22;9999;48.780;9.146;2024-03-07T01:00:16;5.70;99.90
7512;DHT22;9999;48.780;9.146;2024-03-07T01:02:47;5.70;99.90
7512;DHT22;9999;48.780;9.146;2024-03-07T01:05:14;5.80;99.90
7512;DHT22;9999;48.780;9.146;2024-03-07T01:07:43;5.80;99.90
7512;DHT22;9999;48.780;9.146;2024-03-07T01:10:13;5.70;99.90
7512;DHT22;9999;48.780;9.146;2024-03-07T01:12:40;5.70;99.90
7512;DHT22;9999;48.780;9.146;2024-03-07T01:15:09;5.60;99.90
7512;DHT22;9999;48.780;9.146;2024-03-07T01:17:37;5.60;99.90
7512;DHT22;9999;48.780;9.146;2024-03-07T01:20:04;5.60;99.90
7512;DHT22;9999;48.780;9.146;2024-03-07T01:22:31;5.60;99.90
7512;DHT22;9999;48.780;9.146;2024-03-07T01:24:58;5.50;99.90
7512;DHT22;9999;48.780;9.146;2024-03-07T01:27:26;5.50;99.90
7512;DHT22;9999;48.780;9.146;2024-03-07T01:29:53;5.50;99.90
7512;DHT22;9999;48.780;9.146;2024-03-07T01:32:20;5.50;99.90
7512;DHT22;9999;48.780;9.146;2024-03-07T01:34:48;5.50;99.90
7512;DHT22;9999;48.780;9.146;2024-03-07T01:37:14;5.40;99.90
7512;DHT22;9999;48.780;9.146;2024-03-07T01:39:41;5.40;99.90
7512;DHT22;9999;48.780;9.146;2024-03-07T01:42:08;5.20;99.90
7512;DHT22;9999;48.780;9.146;2024-03-07T01:44:36;5.20;99.90
7512;DHT22;9999;48.780;9.146;2024-03-07T01:47:03;5.10;99.90
7512;DHT22;9999;48.780;9.146;2024-03-07T01:49:31;5.10;99.90
7512;DHT22;9999;48.780;9.146;2024-03-07T01:51:58;5.10;99.90
7512;DHT22;9999;48.780;9.146;2024-03-07T01:54:25;5.00;99.90
7512;DHT22;9999;48.780;9.146;2024-03-07T01:56:55;5.00;99.90
7512;DHT22;9999;48.780;9.146;2024-03-07T01:59:22;4.90;99.90
7512;DHT22;9999;48.780;9.146;2024-03-07T02:01:50;4.90;99.90
7512;DHT22;9999;48.780;9.146;2024-03-07T02:04:17;4.90;99.90
7512;DHT22;9999;48.780;9.146;2024-03-07T02:06:44;4.90;99.90
7512;DHT22;9999;48.780;9.146;2024-03-07T02:09:11;4.80;99.90
7512;DHT22;9999;48.780;9.146;2024-03-07T02:11:39;4.80;99.90
7512;DHT22;9999;48.780;9.146;2024-03-07T02:14:06;4.70;99.90
7512;DHT22;9999;48.780;9.146;2024-03-07T02:16:33;4.70;99.90
7512;DHT22;9999;48.780;9.146;2024-03-07T02:19:01;4.70;99.90
7512;DHT22;9999;48.780;9.146;2024-03-07T02:21:29;4.70;99.90
7512;DHT22;9999;48.780;9.146;2024-03-07T02:23:56;4.60;99.90
7512;DHT22;9999;48.780;9.146;2024-03-07T02:26:23;4.60;99.90
7512;DHT22;9999;48.780;9.146;2024-03-07T02:28:50;4.40;99.90
7512;DHT22;9999;48.780;9.146;2024-03-07T02:31:17;4.30;99.90
7512;DHT22;9999;48.780;9.146;2024-03-07T02:33:45;4.20;99.90
7512;DHT22;9999;48.780;9.146;2024-03-07T02:36:12;4.10;99.90
7512;DHT22;9999;48.780;9.146;2024-03-07T02:38:40;4.00;99.90
7512;DHT22;9999;48.780;9.146;2024-03-07T02:41:07;4.20;99.90
7512;DHT22;9999;48.780;9.146;2024-03-07T02:43:33;4.00;99.90
7512;DHT22;9999;48.780;9.146;2024-03-07T02:46:03;4.00;99.90
7512;DHT22;9999;48.780;9.146;2024-03-07T02:48:30;3.90;99.90
7512;DHT22;9999;48.780;9.146;2024-03-07T02:50:57;3.90;99.90
7512;DHT22;9999;48.780;9.146;2024-03-07T02:53:24;4.00;99.90
7512;DHT22;9999;48.780;9.146;2024-03-07T02:55:52;4.00;99.90
7512;DHT22;9999;48.780;9.146;2024-03-07T02:58:19;4.00;99.90
7512;DHT22;9999;48.780;9.146;2024-03-07T03:00:46;4.00;99.90
7512;DHT22;9999;48.780;9.146;2024-03-07T03:03:14;3.90;99.90
7512;DHT22;9999;48.780;9.146;2024-03-07T03:05:41;3.90;99.90
7512;DHT22;9999;48.780;9.146;2024-03-07T03:08:08;3.80;99.90
7512;DHT22;9999;48.780;9.146;2024-03-07T03:10:37;3.80;99.90
7512;DHT22;9999;48.780;9.146;2024-03-07T03:13:05;3.80;99.90
7512;DHT22;9999;48.780;9.146;2024-03-07T03:15:32;3.80;99.90
7512;DHT22;9999;48.780;9.146;2024-03-07T03:17:59;3.70;99.90
7512;DHT22;9999;48.780;9.146;2024-03-07T03:20:26;3.70;99.90
7512;DHT22;9999;48.780;9.146;2024-03-07T03:22:59;3.80;99.90
7512;DHT22;9999;48.780;9.146;2024-03-07T03:25:26;3.80;99.90
7512;DHT22;9999;48.780;9.146;2024-03-07T03:27:52;3.60;99.90
7512;DHT22;9999;48.780;9.146;2024-03-07T03:30:21;3.60;99.90
7512;DHT22;9999;48.780;9.146;2024-03-07T03:32:48;3.60;99.90
7512;DHT22;9999;48.780;9.146;2024-03-07T03:35:15;3.60;99.90
7512;DHT22;9999;48.780;9.146;2024-03-07T03:37:42;3.50;99.90
7512;DHT22;9999;48.780;9.146;2024-03-07T03:40:10;3.60;99.90
7512;DHT22;9999;48.780;9.146;2024-03-07T03:42:38;3.50;99.90
7512;DHT22;9999;48.780;9.146;2024-03-07T03:45:07;3.50;99.90
7512;DHT22;9999;48.780;9.146;2024-03-07T03:47:37;3.40;99.90
7512;DHT22;9999;48.780;9.146;2024-03-07T03:50:04;3.40;99.90
7512;DHT22;9999;48.780;9.146;2024-03-07T03:52:32;3.30;99.90
7512;DHT22;9999;48.780;9.146;2024-03-07T03:55:01;3.30;99.90
7512;DHT22;9999;48.780;9.146;2024-03-07T03:57:29;3.30;99.90
7512;DHT22;9999;48.780;9.146;2024-03-07T03:59:55;3.30;99.90
7512;DHT22;9999;48.780;9.146;2024-03-07T04:02:22;3.20;99.90
7512;DHT22;9999;48.780;9.146;2024-03-07T04:04:50;3.10;99.90
7512;DHT22;9999;48.780;9.146;2024-03-07T04:07:18;3.00;99.90
7512;DHT22;9999;48.780;9.146;2024-03-07T04:09:46;3.10;99.90
7512;DHT22;9999;48.780;9.146;2024-03-07T04:12:13;3.00;99.90
7512;DHT22;9999;48.780;9.146;2024-03-07T04:14:41;3.00;99.90
7512;DHT22;9999;48.780;9.146;2024-03-07T04:17:09;2.90;99.90
7512;DHT22;9999;48.780;9.146;2024-03-07T04:19:39;2.90;99.90
7512;DHT22;9999;48.780;9.146;2024-03-07T04:22:07;2.90;99.90
7512;DHT22;9999;48.780;9.146;2024-03-07T04:24:35;2.80;99.90
7512;DHT22;9999;48.780;9.146;2024-03-07T04:27:02;2.80;99.90
7512;DHT22;9999;48.780;9.146;2024-03-07T04:29:30;2.80;99.90
7512;DHT22;9999;48.780;9.146;2024-03-07T04:31:57;2.80;99.90
7512;DHT22;9999;48.780;9.146;2024-03-07T04:34:24;2.60;99.90
7512;DHT22;9999;48.780;9.146;2024-03-07T04:36:51;2.60;99.90
7512;DHT22;9999;48.780;9.146;2024-03-07T04:39:19;2.70;99.90
7512;DHT22;9999;48.780;9.146;2024-03-07T04:41:58;2.70;99.90
7512;DHT22;9999;48.780;9.146;2024-03-07T04:44:26;2.80;99.90
7512;DHT22;9999;48.780;9.146;2024-03-07T04:46:53;2.70;99.90
7512;DHT22;9999;48.780;9.146;2024-03-07T04:49:22;2.70;99.90
7512;DHT22;9999;48.780;9.146;2024-03-07T04:51:49;2.60;99.90
7512;DHT22;9999;48.780;9.146;2024-03-07T04:54:16;2.50;99.90
7512;DHT22;9999;48.780;9.146;2024-03-07T04:56:45;2.50;99.90
7512;DHT22;9999;48.780;9.146;2024-03-07T04:59:12;2.50;99.90
7512;DHT22;9999;48.780;9.146;2024-03-07T05:01:38;2.50;99.90
7512;DHT22;9999;48.780;9.146;2024-03-07T05:04:06;2.60;99.90
7512;DHT22;9999;48.780;9.146;2024-03-07T05:06:33;2.60;99.90
7512;DHT22;9999;48.780;9.146;2024-03-07T05:09:00;2.60;99.90
7512;DHT22;9999;48.780;9.146;2024-03-07T05:11:28;2.50;99.90
7512;DHT22;9999;48.780;9.146;2024-03-07T05:13:56;2.50;99.90
7512;DHT22;9999;48.780;9.146;2024-03-07T05:16:24;2.50;99.90
7512;DHT22;9999;48.780;9.146;2024-03-07T05:18:51;2.50;99.90
7512;DHT22;9999;48.780;9.146;2024-03-07T05:21:18;2.40;99.90
7512;DHT22;9999;48.780;9.146;2024-03-07T05:24:00;2.40;99.90
7512;DHT22;9999;48.780;9.146;2024-03-07T05:26:27;2.30;99.90
7512;DHT22;9999;48.780;9.146;2024-03-07T05:28:56;2.30;99.90
7512;DHT22;9999;48.780;9.146;2024-03-07T05:31:24;2.30;99.90
7512;DHT22;9999;48.780;9.146;2024-03-07T05:33:51;2.30;99.90
7512;DHT22;9999;48.780;9.146;2024-03-07T05:36:17;2.30;99.90
7512;DHT22;9999;48.780;9.146;2024-03-07T05:38:45;2.30;99.90
7512;DHT22;9999;48.780;9.146;2024-03-07T05:41:12;2.20;99.90
7512;DHT22;9999;48.780;9.146;2024-03-07T05:43:39;2.30;99.90
7512;DHT22;9999;48.780;9.146;2024-03-07T05:46:07;2.30;99.90
7512;DHT22;9999;48.780;9.146;2024-03-07T05:48:35;2.30;99.90
7512;DHT22;9999;48.780;9.146;2024-03-07T05:51:02;2.30;99.90
7512;DHT22;9999;48.780;9.146;2024-03-07T05:53:29;2.30;99.90
7512;DHT22;9999;48.780;9.146;2024-03-07T05:55:56;2.30;99.90
7512;DHT22;9999;48.780;9.146;2024-03-07T05:58:23;2.30;99.90
7512;DHT22;9999;48.780;9.146;2024-03-07T06:00:50;2.30;99.90
7512;DHT22;9999;48.780;9.146;2024-03-07T06:03:18;2.20;99.90
7512;DHT22;9999;48.780;9.146;2024-03-07T06:05:45;2.20;99.90
7512;DHT22;9999;48.780;9.146;2024-03-07T06:08:14;2.30;99.90
7512;DHT22;9999;48.780;9.146;2024-03-07T06:10:42;2.20;99.90
7512;DHT22;9999;48.780;9.146;2024-03-07T06:13:10;2.20;99.90
7512;DHT22;9999;48.780;9.146;2024-03-07T06:15:38;2.20;99.90
7512;DHT22;9999;48.780;9.146;2024-03-07T06:18:05;2.20;99.90
7512;DHT22;9999;48.780;9.146;2024-03-07T06:20:34;2.20;99.90
7512;DHT22;9999;48.780;9.146;2024-03-07T06:23:02;2.20;99.90
7512;DHT22;9999;48.780;9.146;2024-03-07T06:25:30;2.20;99.90
7512;DHT22;9999;48.780;9.146;2024-03-07T06:28:03;2.20;99.90
7512;DHT22;9999;48.780;9.146;2024-03-07T06:30:36;2.20;99.90
7512;DHT22;9999;48.780;9.146;2024-03-07T06:33:05;2.10;99.90
7512;DHT22;9999;48.780;9.146;2024-03-07T06:35:32;2.20;99.90
7512;DHT22;9999;48.780;9.146;2024-03-07T06:38:03;2.20;99.90
7512;DHT22;9999;48.780;9.146;2024-03-07T06:40:31;2.20;99.90
7512;DHT22;9999;48.780;9.146;2024-03-07T06:42:58;2.20;99.90
7512;DHT22;9999;48.780;9.146;2024-03-07T06:45:25;2.20;99.90
7512;DHT22;9999;48.780;9.146;2024-03-07T06:47:52;2.30;99.90
7512;DHT22;9999;48.780;9.146;2024-03-07T06:50:19;2.30;99.90
7512;DHT22;9999;48.780;9.146;2024-03-07T06:52:47;2.20;99.90
7512;DHT22;9999;48.780;9.146;2024-03-07T06:55:16;2.30;99.90
7512;DHT22;9999;48.780;9.146;2024-03-07T06:57:44;3.20;99.90
7512;DHT22;9999;48.780;9.146;2024-03-07T07:00:12;2.30;99.90
7512;DHT22;9999;48.780;9.146;2024-03-07T07:02:40;2.30;99.90
7512;DHT22;9999;48.780;9.146;2024-03-07T07:05:08;2.40;99.90
7512;DHT22;9999;48.780;9.146;2024-03-07T07:07:37;2.40;99.90
7512;DHT22;9999;48.780;9.146;2024-03-07T07:10:05;2.40;99.90
7512;DHT22;9999;48.780;9.146;2024-03-07T07:12:35;2.50;99.90
7512;DHT22;9999;48.780;9.146;2024-03-07T07:15:03;2.60;99.90
7512;DHT22;9999;48.780;9.146;2024-03-07T07:17:30;2.90;99.90
7512;DHT22;9999;48.780;9.146;2024-03-07T07:19:57;3.20;99.90
7512;DHT22;9999;48.780;9.146;2024-03-07T07:22:25;3.70;99.90
7512;DHT22;9999;48.780;9.146;2024-03-07T07:24:51;3.90;99.90
7512;DHT22;9999;48.780;9.146;2024-03-07T07:27:18;4.20;99.90
7512;DHT22;9999;48.780;9.146;2024-03-07T07:29:46;4.10;99.90
7512;DHT22;9999;48.780;9.146;2024-03-07T07:32:13;4.10;99.90
7512;DHT22;9999;48.780;9.146;2024-03-07T07:34:40;3.90;99.90
7512;DHT22;9999;48.780;9.146;2024-03-07T07:37:08;3.90;99.90
7512;DHT22;9999;48.780;9.146;2024-03-07T07:39:35;3.90;99.90
7512;DHT22;9999;48.780;9.146;2024-03-07T07:42:02;4.10;99.90
7512;DHT22;9999;48.780;9.146;2024-03-07T07:44:29;4.20;99.90
7512;DHT22;9999;48.780;9.146;2024-03-07T07:46:57;4.40;99.90
7512;DHT22;9999;48.780;9.146;2024-03-07T07:49:24;4.60;99.90
7512;DHT22;9999;48.780;9.146;2024-03-07T07:51:51;4.80;99.90
7512;DHT22;9999;48.780;9.146;2024-03-07T07:54:19;4.80;99.90
7512;DHT22;9999;48.780;9.146;2024-03-07T07:56:46;4.70;99.90
7512;DHT22;9999;48.780;9.146;2024-03-07T07:59:14;4.70;99.90
7512;DHT22;9999;48.780;9.146;2024-03-07T08:01:40;4.70;99.90
7512;DHT22;9999;48.780;9.146;2024-03-07T08:04:09;4.50;99.90
7512;DHT22;9999;48.780;9.146;2024-03-07T08:06:36;4.10;99.90
7512;DHT22;9999;48.780;9.146;2024-03-07T08:09:04;4.20;99.90
7512;DHT22;9999;48.780;9.146;2024-03-07T08:11:35;4.30;99.90
7512;DHT22;9999;48.780;9.146;2024-03-07T08:14:02;4.30;99.90
7512;DHT22;9999;48.780;9.146;2024-03-07T08:16:29;4.40;99.90
7512;DHT22;9999;48.780;9.146;2024-03-07T08:18:56;4.60;99.90
7512;DHT22;9999;48.780;9.146;2024-03-07T08:21:24;4.70;99.90
7512;DHT22;9999;48.780;9.146;2024-03-07T08:23:51;4.60;99.90
7512;DHT22;9999;48.780;9.146;2024-03-07T08:26:20;4.50;99.90
7512;DHT22;9999;48.780;9.146;2024-03-07T08:28:47;4.60;99.90
7512;DHT22;9999;48.780;9.146;2024-03-07T08:31:14;4.60;99.90
7512;DHT22;9999;48.780;9.146;2024-03-07T08:33:40;4.50;99.90
7512;DHT22;9999;48.780;9.146;2024-03-07T08:36:07;4.60;99.90
7512;DHT22;9999;48.780;9.146;2024-03-07T08:38:37;4.80;99.90
7512;DHT22;9999;48.780;9.146;2024-03-07T08:41:05;4.90;99.90
7512;DHT22;9999;48.780;9.146;2024-03-07T08:43:31;4.90;99.90
7512;DHT22;9999;48.780;9.146;2024-03-07T08:45:59;4.90;99.90
7512;DHT22;9999;48.780;9.146;2024-03-07T08:48:25;4.90;99.90
7512;DHT22;9999;48.780;9.146;2024-03-07T08:50:52;4.80;99.90
7512;DHT22;9999;48.780;9.146;2024-03-07T08:53:19;4.80;99.90
7512;DHT22;9999;48.780;9.146;2024-03-07T08:55:47;4.60;99.90
7512;DHT22;9999;48.780;9.146;2024-03-07T08:58:14;4.70;99.90
7512;DHT22;9999;48.780;9.146;2024-03-07T09:00:40;4.80;99.90
7512;DHT22;9999;48.780;9.146;2024-03-07T09:03:07;4.70;99.90
7512;DHT22;9999;48.780;9.146;2024-03-07T09:05:36;4.80;99.90
7512;DHT22;9999;48.780;9.146;2024-03-07T09:08:03;4.60;99.90
7512;DHT22;9999;48.780;9.146;2024-03-07T09:10:31;4.40;99.90
7512;DHT22;9999;48.780;9.146;2024-03-07T09:12:59;4.40;99.90
7512;DHT22;9999;48.780;9.146;2024-03-07T09:15:26;4.30;99.90
7512;DHT22;9999;48.780;9.146;2024-03-07T09:17:53;4.40;99.90
7512;DHT22;9999;48.780;9.146;2024-03-07T09:20:20;4.40;99.90
7512;DHT22;9999;48.780;9.146;2024-03-07T09:22:47;4.40;99.90
7512;DHT22;9999;48.780;9.146;2024-03-07T09:25:16;4.50;99.90
7512;DHT22;9999;48.780;9.146;2024-03-07T09:27:44;4.50;99.90
7512;DHT22;9999;48.780;9.146;2024-03-07T09:30:12;4.60;99.90
7512;DHT22;9999;48.780;9.146;2024-03-07T09:32:42;4.50;99.90
7512;DHT22;9999;48.780;9.146;2024-03-07T09:35:09;4.60;99.90
7512;DHT22;9999;48.780;9.146;2024-03-07T09:37:39;4.80;99.90
7512;DHT22;9999;48.780;9.146;2024-03-07T09:40:07;4.70;99.90
7512;DHT22;9999;48.780;9.146;2024-03-07T09:42:41;4.80;99.90
7512;DHT22;9999;48.780;9.146;2024-03-07T09:45:15;4.90;99.90
7512;DHT22;9999;48.780;9.146;2024-03-07T09:47:45;4.80;99.90
7512;DHT22;9999;48.780;9.146;2024-03-07T09:50:14;4.80;99.90
7512;DHT22;9999;48.780;9.146;2024-03-07T09:52:46;5.00;99.90
7512;DHT22;9999;48.780;9.146;2024-03-07T09:55:15;5.10;99.90
7512;DHT22;9999;48.780;9.146;2024-03-07T09:57:43;5.10;99.90
7512;DHT22;9999;48.780;9.146;2024-03-07T10:00:12;5.10;99.90
7512;DHT22;9999;48.780;9.146;2024-03-07T10:02:53;5.10;99.90
7512;DHT22;9999;48.780;9.146;2024-03-07T10:05:20;5.20;99.90
7512;DHT22;9999;48.780;9.146;2024-03-07T10:07:48;5.10;99.90
7512;DHT22;9999;48.780;9.146;2024-03-07T10:10:16;5.10;99.90
7512;DHT22;9999;48.780;9.146;2024-03-07T10:12:43;5.20;99.90
7512;DHT22;9999;48.780;9.146;2024-03-07T10:15:10;5.30;99.90
7512;DHT22;9999;48.780;9.146;2024-03-07T10:17:39;5.60;99.90
7512;DHT22;9999;48.780;9.146;2024-03-07T10:20:08;5.70;99.90
7512;DHT22;9999;48.780;9.146;2024-03-07T10:22:39;5.80;99.90
7512;DHT22;9999;48.780;9.146;2024-03-07T10:25:07;6.00;99.90
7512;DHT22;9999;48.780;9.146;2024-03-07T10:27:36;6.20;99.90
7512;DHT22;9999;48.780;9.146;2024-03-07T10:30:04;6.70;99.90
7512;DHT22;9999;48.780;9.146;2024-03-07T10:32:33;7.00;99.90
7512;DHT22;9999;48.780;9.146;2024-03-07T10:35:00;7.20;99.90
7512;DHT22;9999;48.780;9.146;2024-03-07T10:37:30;7.50;99.90
7512;DHT22;9999;48.780;9.146;2024-03-07T10:39:57;7.50;99.90
7512;DHT22;9999;48.780;9.146;2024-03-07T10:42:28;7.50;99.90
7512;DHT22;9999;48.780;9.146;2024-03-07T10:45:01;7.20;99.90
7512;DHT22;9999;48.780;9.146;2024-03-07T10:47:31;7.00;99.90
7512;DHT22;9999;48.780;9.146;2024-03-07T10:50:09;6.90;99.90
7512;DHT22;9999;48.780;9.146;2024-03-07T10:52:49;6.80;99.90
7512;DHT22;9999;48.780;9.146;2024-03-07T10:55:26;6.70;99.90
7512;DHT22;9999;48.780;9.146;2024-03-07T10:58:01;6.50;99.90
7512;DHT22;9999;48.780;9.146;2024-03-07T11:00:30;6.50;99.90
7512;DHT22;9999;48.780;9.146;2024-03-07T11:03:02;6.40;99.90
7512;DHT22;9999;48.780;9.146;2024-03-07T11:05:33;6.40;99.90
7512;DHT22;9999;48.780;9.146;2024-03-07T11:08:02;6.40;99.90
7512;DHT22;9999;48.780;9.146;2024-03-07T11:10:33;6.40;99.90
7512;DHT22;9999;48.780;9.146;2024-03-07T11:13:01;6.60;99.90
7512;DHT22;9999;48.780;9.146;2024-03-07T11:15:30;6.40;99.90
7512;DHT22;9999;48.780;9.146;2024-03-07T11:17:57;6.50;99.90
7512;DHT22;9999;48.780;9.146;2024-03-07T11:20:25;6.60;99.90
7512;DHT22;9999;48.780;9.146;2024-03-07T11:22:53;6.70;99.90
7512;DHT22;9999;48.780;9.146;2024-03-07T11:25:22;6.60;99.90
7512;DHT22;9999;48.780;9.146;2024-03-07T11:27:52;6.70;99.90
7512;DHT22;9999;48.780;9.146;2024-03-07T11:30:21;6.60;99.90
7512;DHT22;9999;48.780;9.146;2024-03-07T11:32:49;6.70;99.90
7512;DHT22;9999;48.780;9.146;2024-03-07T11:35:19;6.80;99.90
7512;DHT22;9999;48.780;9.146;2024-03-07T11:37:56;6.80;99.90
7512;DHT22;9999;48.780;9.146;2024-03-07T11:40:51;7.00;99.90
7512;DHT22;9999;48.780;9.146;2024-03-07T11:43:18;6.90;99.90
7512;DHT22;9999;48.780;9.146;2024-03-07T11:45:45;6.90;99.90
7512;DHT22;9999;48.780;9.146;2024-03-07T11:48:18;7.00;99.90
7512;DHT22;9999;48.780;9.146;2024-03-07T11:50:47;7.00;99.90
7512;DHT22;9999;48.780;9.146;2024-03-07T11:53:14;7.00;99.90
7512;DHT22;9999;48.780;9.146;2024-03-07T11:55:41;7.10;99.90
7512;DHT22;9999;48.780;9.146;2024-03-07T11:58:12;7.10;99.90
7512;DHT22;9999;48.780;9.146;2024-03-07T12:00:41;7.10;99.90
7512;DHT22;9999;48.780;9.146;2024-03-07T12:03:10;7.10;99.90
7512;DHT22;9999;48.780;9.146;2024-03-07T12:05:40;7.00;99.90
7512;DHT22;9999;48.780;9.146;2024-03-07T12:08:07;7.00;99.90
7512;DHT22;9999;48.780;9.146;2024-03-07T12:10:36;7.00;99.90
7512;DHT22;9999;48.780;9.146;2024-03-07T12:13:05;6.90;99.90
7512;DHT22;9999;48.780;9.146;2024-03-07T12:15:34;7.00;99.90
7512;DHT22;9999;48.780;9.146;2024-03-07T12:18:04;7.00;99.90
7512;DHT22;9999;48.780;9.146;2024-03-07T12:20:35;6.90;99.90
7512;DHT22;9999;48.780;9.146;2024-03-07T12:23:04;6.90;99.90
7512;DHT22;9999;48.780;9.146;2024-03-07T12:25:34;6.90;99.90
7512;DHT22;9999;48.780;9.146;2024-03-07T12:28:02;7.00;99.90
7512;DHT22;9999;48.780;9.146;2024-03-07T12:30:35;7.00;99.90
7512;DHT22;9999;48.780;9.146;2024-03-07T12:33:04;7.00;99.90
7512;DHT22;9999;48.780;9.146;2024-03-07T12:35:33;6.90;99.90
7512;DHT22;9999;48.780;9.146;2024-03-07T12:38:00;6.90;99.90
7512;DHT22;9999;48.780;9.146;2024-03-07T12:40:29;6.90;99.90
7512;DHT22;9999;48.780;9.146;2024-03-07T12:42:59;6.80;99.90
7512;DHT22;9999;48.780;9.146;2024-03-07T12:45:28;6.70;99.90
7512;DHT22;9999;48.780;9.146;2024-03-07T12:48:00;6.60;99.90
7512;DHT22;9999;48.780;9.146;2024-03-07T12:50:30;6.60;99.90
7512;DHT22;9999;48.780;9.146;2024-03-07T12:53:00;6.50;99.90
7512;DHT22;9999;48.780;9.146;2024-03-07T12:55:31;6.50;99.90
7512;DHT22;9999;48.780;9.146;2024-03-07T12:57:58;6.60;99.90
7512;DHT22;9999;48.780;9.146;2024-03-07T13:00:24;6.70;99.90
7512;DHT22;9999;48.780;9.146;2024-03-07T13:02:55;6.80;99.90
7512;DHT22;9999;48.780;9.146;2024-03-07T13:05:24;6.80;99.90
7512;DHT22;9999;48.780;9.146;2024-03-07T13:07:51;6.80;99.90
7512;DHT22;9999;48.780;9.146;2024-03-07T13:10:18;6.90;99.90
7512;DHT22;9999;48.780;9.146;2024-03-07T13:12:46;6.90;99.90
7512;DHT22;9999;48.780;9.146;2024-03-07T13:15:14;6.90;99.90
7512;DHT22;9999;48.780;9.146;2024-03-07T13:17:41;7.00;99.90
7512;DHT22;9999;48.780;9.146;2024-03-07T13:20:09;6.90;99.90
7512;DHT22;9999;48.780;9.146;2024-03-07T13:22:40;6.90;99.90
7512;DHT22;9999;48.780;9.146;2024-03-07T13:25:09;7.00;99.90
7512;DHT22;9999;48.780;9.146;2024-03-07T13:27:51;6.90;99.90
7512;DHT22;9999;48.780;9.146;2024-03-07T13:30:20;6.90;99.90
7512;DHT22;9999;48.780;9.146;2024-03-07T13:32:52;7.00;99.90
7512;DHT22;9999;48.780;9.146;2024-03-07T13:35:20;7.00;99.90
7512;DHT22;9999;48.780;9.146;2024-03-07T13:37:50;7.10;99.90
7512;DHT22;9999;48.780;9.146;2024-03-07T13:40:17;7.10;99.90
7512;DHT22;9999;48.780;9.146;2024-03-07T13:42:54;7.10;99.90
7512;DHT22;9999;48.780;9.146;2024-03-07T13:45:22;7.00;99.90
7512;DHT22;9999;48.780;9.146;2024-03-07T13:47:50;7.00;99.90
7512;DHT22;9999;48.780;9.146;2024-03-07T13:50:18;7.00;99.90
7512;DHT22;9999;48.780;9.146;2024-03-07T13:52:49;7.10;99.90
7512;DHT22;9999;48.780;9.146;2024-03-07T13:55:32;7.10;99.90
7512;DHT22;9999;48.780;9.146;2024-03-07T13:58:04;7.00;99.90
7512;DHT22;9999;48.780;9.146;2024-03-07T14:00:45;7.00;99.90
7512;DHT22;9999;48.780;9.146;2024-03-07T14:03:41;7.00;99.90
7512;DHT22;9999;48.780;9.146;2024-03-07T14:06:14;7.00;99.90
7512;DHT22;9999;48.780;9.146;2024-03-07T14:09:14;7.00;99.90
7512;DHT22;9999;48.780;9.146;2024-03-07T14:15:30;6.80;99.90
7512;DHT22;9999;48.780;9.146;2024-03-07T14:18:53;6.80;99.90
7512;DHT22;9999;48.780;9.146;2024-03-07T14:22:04;6.90;99.90
7512;DHT22;9999;48.780;9.146;2024-03-07T14:25:26;6.90;99.90
7512;DHT22;9999;48.780;9.146;2024-03-07T14:28:38;7.00;99.90
7512;DHT22;9999;48.780;9.146;2024-03-07T14:31:08;7.10;99.90
7512;DHT22;9999;48.780;9.146;2024-03-07T14:33:49;7.10;99.90
7512;DHT22;9999;48.780;9.146;2024-03-07T14:36:17;7.20;99.90
7512;DHT22;9999;48.780;9.146;2024-03-07T14:38:49;7.20;99.90
7512;DHT22;9999;48.780;9.146;2024-03-07T14:41:19;7.20;99.90
7512;DHT22;9999;48.780;9.146;2024-03-07T14:43:48;7.20;99.90
7512;DHT22;9999;48.780;9.146;2024-03-07T14:46:16;7.10;99.90
7512;DHT22;9999;48.780;9.146;2024-03-07T14:48:44;7.10;99.90
7512;DHT22;9999;48.780;9.146;2024-03-07T14:51:11;7.10;99.90
7512;DHT22;9999;48.780;9.146;2024-03-07T14:53:39;7.30;99.90
7512;DHT22;9999;48.780;9.146;2024-03-07T14:56:07;7.30;99.90
7512;DHT22;9999;48.780;9.146;2024-03-07T14:58:35;7.30;99.90
7512;DHT22;9999;48.780;9.146;2024-03-07T15:01:04;7.30;99.90
7512;DHT22;9999;48.780;9.146;2024-03-07T15:03:31;7.30;99.90
7512;DHT22;9999;48.780;9.146;2024-03-07T15:05:59;7.40;99.90
7512;DHT22;9999;48.780;9.146;2024-03-07T15:08:27;7.50;99.90
7512;DHT22;9999;48.780;9.146;2024-03-07T15:10:58;7.50;99.90
7512;DHT22;9999;48.780;9.146;2024-03-07T15:13:29;7.40;99.90
7512;DHT22;9999;48.780;9.146;2024-03-07T15:15:57;7.40;99.90
7512;DHT22;9999;48.780;9.146;2024-03-07T15:18:25;7.40;99.90
7512;DHT22;9999;48.780;9.146;2024-03-07T15:20:53;7.30;99.90
7512;DHT22;9999;48.780;9.146;2024-03-07T15:23:20;7.30;99.90
7512;DHT22;9999;48.780;9.146;2024-03-07T15:25:48;7.30;99.90
7512;DHT22;9999;48.780;9.146;2024-03-07T15:28:14;7.30;99.90
7512;DHT22;9999;48.780;9.146;2024-03-07T15:30:41;7.30;99.90
7512;DHT22;9999;48.780;9.146;2024-03-07T15:33:09;7.30;99.90
7512;DHT22;9999;48.780;9.146;2024-03-07T15:35:36;7.30;99.90
7512;DHT22;9999;48.780;9.146;2024-03-07T15:38:03;7.20;99.90
7512;DHT22;9999;48.780;9.146;2024-03-07T15:40:31;7.20;99.90
7512;DHT22;9999;48.780;9.146;2024-03-07T15:42:59;7.20;99.90
7512;DHT22;9999;48.780;9.146;2024-03-07T15:45:27;7.20;99.90
7512;DHT22;9999;48.780;9.146;2024-03-07T15:47:56;7.20;99.90
7512;DHT22;9999;48.780;9.146;2024-03-07T15:50:26;7.10;99.90
7512;DHT22;9999;48.780;9.146;2024-03-07T15:52:55;7.10;99.90
7512;DHT22;9999;48.780;9.146;2024-03-07T15:55:23;7.10;99.90
7512;DHT22;9999;48.780;9.146;2024-03-07T15:57:56;7.00;99.90
7512;DHT22;9999;48.780;9.146;2024-03-07T16:00:25;7.10;99.90
7512;DHT22;9999;48.780;9.146;2024-03-07T16:02:53;7.00;99.90
7512;DHT22;9999;48.780;9.146;2024-03-07T16:05:25;7.10;99.90
7512;DHT22;9999;48.780;9.146;2024-03-07T16:07:55;7.00;99.90
7512;DHT22;9999;48.780;9.146;2024-03-07T16:10:22;7.00;99.90
7512;DHT22;9999;48.780;9.146;2024-03-07T16:12:50;7.00;99.90
7512;DHT22;9999;48.780;9.146;2024-03-07T16:15:17;7.10;99.90
7512;DHT22;9999;48.780;9.146;2024-03-07T16:17:46;6.90;99.90
7512;DHT22;9999;48.780;9.146;2024-03-07T16:20:13;6.90;99.90
7512;DHT22;9999;48.780;9.146;2024-03-07T16:22:42;6.90;99.90
7512;DHT22;9999;48.780;9.146;2024-03-07T16:25:10;6.90;99.90
7512;DHT22;9999;48.780;9.146;2024-03-07T16:27:38;6.80;99.90
7512;DHT22;9999;48.780;9.146;2024-03-07T16:30:09;6.80;99.90
7512;DHT22;9999;48.780;9.146;2024-03-07T16:32:37;6.70;99.90